createdAt,value
2019-05-18T00:00:44.732Z,20.18
2019-05-18T00:03:16.284Z,20.19
2019-05-18T00:05:48.141Z,20.13
2019-05-18T00:08:19.702Z,20.11
2019-05-18T00:10:52.379Z,20.09
2019-05-18T00:13:24.234Z,20.02
2019-05-18T00:15:55.788Z,20.05
2019-05-18T00:18:27.445Z,20.01
2019-05-18T00:20:59.153Z,19.95
2019-05-18T00:23:30.751Z,19.94
2019-05-18T00:26:02.415Z,19.90
2019-05-18T00:28:35.600Z,19.91
2019-05-18T00:31:07.256Z,19.85
2019-05-18T00:33:38.805Z,19.80
2019-05-18T00:36:10.771Z,19.80
2019-05-18T00:38:42.423Z,19.87
2019-05-18T00:41:13.981Z,19.85
2019-05-18T00:43:45.539Z,19.81
2019-05-18T00:46:16.978Z,19.77
2019-05-18T00:48:48.533Z,19.73
2019-05-18T00:51:23.158Z,19.73
2019-05-18T00:53:53.788Z,19.65
2019-05-18T00:56:25.602Z,19.62
2019-05-18T00:58:57.104Z,19.58
2019-05-18T01:01:28.973Z,19.57
2019-05-18T01:04:00.619Z,19.58
2019-05-18T01:06:32.277Z,19.52
2019-05-18T01:09:05.271Z,19.48
2019-05-18T01:11:36.921Z,19.41
2019-05-18T01:14:08.605Z,19.40
2019-05-18T01:16:39.949Z,19.32
2019-05-18T01:19:11.492Z,19.34
2019-05-18T01:21:43.535Z,19.31
2019-05-18T01:24:15.088Z,19.35
2019-05-18T01:26:46.943Z,19.31
2019-05-18T01:29:18.606Z,19.23
2019-05-18T01:31:50.265Z,19.20
2019-05-18T01:34:21.922Z,19.17
2019-05-18T01:36:53.568Z,19.17
2019-05-18T01:39:24.940Z,19.09
2019-05-18T01:41:56.579Z,19.04
2019-05-18T01:44:28.135Z,19.04
2019-05-18T01:46:59.990Z,19.04
2019-05-18T01:49:31.750Z,18.94
2019-05-18T01:52:03.313Z,18.90
2019-05-18T01:54:34.754Z,18.86
2019-05-18T01:57:06.535Z,18.85
2019-05-18T01:59:38.161Z,18.83
2019-05-18T02:02:10.126Z,18.83
2019-05-18T02:04:41.981Z,18.76
2019-05-18T02:07:13.614Z,18.72
2019-05-18T02:09:45.090Z,18.71
2019-05-18T02:12:16.943Z,18.75
2019-05-18T02:14:48.604Z,18.76
2019-05-18T02:17:20.297Z,18.80
2019-05-18T02:19:51.582Z,18.81
2019-05-18T02:22:23.564Z,18.86
2019-05-18T02:24:55.119Z,18.87
2019-05-18T02:27:27.209Z,18.89
2019-05-18T02:29:58.980Z,18.94
2019-05-18T02:32:31.012Z,18.99
2019-05-18T02:35:02.982Z,19.01
2019-05-18T02:37:34.828Z,19.02
2019-05-18T02:40:07.108Z,19.11
2019-05-18T02:42:38.559Z,19.13
2019-05-18T02:45:10.314Z,19.23
2019-05-18T02:47:42.074Z,19.25
2019-05-18T02:50:13.608Z,19.33
2019-05-18T02:52:45.382Z,19.41
2019-05-18T02:55:17.035Z,19.55
2019-05-18T02:57:48.895Z,19.57
2019-05-18T03:00:20.459Z,19.62
2019-05-18T03:02:52.414Z,19.71
2019-05-18T03:05:24.072Z,19.77
2019-05-18T03:07:56.040Z,19.94
2019-05-18T03:10:27.641Z,20.00
2019-05-18T03:12:59.332Z,20.05
2019-05-18T03:15:30.844Z,20.14
2019-05-18T03:18:02.346Z,20.01
2019-05-18T03:20:34.308Z,20.03
2019-05-18T03:23:05.882Z,20.17
2019-05-18T03:25:37.307Z,20.66
2019-05-18T03:28:08.958Z,20.82
2019-05-18T03:30:40.732Z,21.49
2019-05-18T03:33:12.269Z,22.84
2019-05-18T03:35:43.984Z,23.62
2019-05-18T03:38:15.590Z,23.82
2019-05-18T03:40:47.136Z,24.04
2019-05-18T03:43:18.989Z,23.87
2019-05-18T03:45:50.861Z,23.08
2019-05-18T03:48:22.510Z,23.40
2019-05-18T03:50:53.958Z,24.43
2019-05-18T03:53:27.154Z,25.06
2019-05-18T03:55:58.911Z,25.38
2019-05-18T03:58:30.367Z,24.45
2019-05-18T04:01:02.340Z,23.16
2019-05-18T04:03:33.975Z,22.12
2019-05-18T04:06:05.690Z,21.67
2019-05-18T04:08:37.607Z,21.14
2019-05-18T04:11:09.461Z,20.82
2019-05-18T04:13:41.221Z,20.84
2019-05-18T04:16:12.978Z,20.89
2019-05-18T04:18:44.837Z,21.08
2019-05-18T04:21:16.392Z,21.35
2019-05-18T04:23:48.262Z,21.91
2019-05-18T04:26:19.792Z,22.40
2019-05-18T04:28:51.663Z,22.63
2019-05-18T04:31:23.110Z,22.99
2019-05-18T04:33:54.970Z,23.56
2019-05-18T04:36:26.932Z,23.92
2019-05-18T04:38:58.485Z,23.58
2019-05-18T04:41:30.973Z,23.39
2019-05-18T04:44:02.722Z,23.09
2019-05-18T04:46:34.580Z,22.74
2019-05-18T04:49:10.739Z,22.60
2019-05-18T04:51:42.411Z,22.67
2019-05-18T04:54:14.459Z,22.70
2019-05-18T04:56:45.803Z,22.88
2019-05-18T04:59:17.563Z,23.26
2019-05-18T05:01:56.415Z,24.15
2019-05-18T05:04:28.045Z,25.22
2019-05-18T05:06:59.497Z,26.35
2019-05-18T05:09:31.351Z,27.28
2019-05-18T05:12:04.349Z,28.04
2019-05-18T05:14:36.101Z,28.47
2019-05-18T05:17:07.455Z,29.12
2019-05-18T05:19:39.202Z,29.39
2019-05-18T05:22:11.074Z,29.67
2019-05-18T05:24:45.095Z,30.03
2019-05-18T05:27:19.301Z,30.27
2019-05-18T05:29:50.899Z,30.31
2019-05-18T05:32:22.602Z,30.37
2019-05-18T05:34:54.466Z,30.36
2019-05-18T05:37:45.470Z,30.85
2019-05-18T05:40:19.079Z,31.51
2019-05-18T05:42:50.722Z,31.78
2019-05-18T05:45:22.804Z,32.22
2019-05-18T05:47:54.780Z,32.56
2019-05-18T05:50:35.196Z,32.84
2019-05-18T05:53:00.419Z,32.84
2019-05-18T05:55:32.959Z,33.42
2019-05-18T05:58:04.446Z,33.43
2019-05-18T06:00:36.191Z,33.39
2019-05-18T06:03:08.498Z,33.74
2019-05-18T06:05:42.483Z,34.16
2019-05-18T06:08:17.045Z,35.03
2019-05-18T06:10:53.308Z,35.50
2019-05-18T06:13:25.825Z,36.15
2019-05-18T06:15:57.471Z,36.88
2019-05-18T06:18:29.079Z,37.19
2019-05-18T06:21:00.752Z,36.83
2019-05-18T06:23:32.731Z,37.27
2019-05-18T06:26:04.546Z,37.41
2019-05-18T06:28:36.398Z,37.88
2019-05-18T06:31:08.301Z,37.24
2019-05-18T06:33:39.740Z,38.07
2019-05-18T06:36:11.774Z,37.66
2019-05-18T06:38:43.594Z,37.59
2019-05-18T06:41:15.313Z,37.98
2019-05-18T06:43:46.753Z,38.36
2019-05-18T06:46:18.257Z,38.81
2019-05-18T06:48:49.896Z,38.53
2019-05-18T06:51:21.478Z,38.50
2019-05-18T06:54:11.268Z,38.65
2019-05-18T06:56:43.042Z,38.09
2019-05-18T06:59:16.408Z,38.58
2019-05-18T07:01:48.238Z,38.87
2019-05-18T07:05:22.374Z,39.20
2019-05-18T07:07:53.841Z,38.82
2019-05-18T07:10:25.271Z,38.79
2019-05-18T07:12:57.111Z,39.15
2019-05-18T07:15:28.545Z,39.74
2019-05-18T07:18:01.974Z,38.62
2019-05-18T07:20:34.597Z,39.19
2019-05-18T07:23:06.494Z,39.49
2019-05-18T07:25:39.124Z,39.73
2019-05-18T07:28:10.996Z,39.40
2019-05-18T07:30:43.181Z,39.06
2019-05-18T07:33:17.168Z,39.68
2019-05-18T07:35:49.656Z,40.01
2019-05-18T07:38:21.187Z,39.52
2019-05-18T07:41:12.617Z,39.54
2019-05-18T07:43:44.517Z,39.70
2019-05-18T07:46:15.840Z,39.83
2019-05-18T07:48:53.472Z,40.19
2019-05-18T07:51:37.124Z,40.87
2019-05-18T07:54:07.333Z,40.46
2019-05-18T07:57:05.815Z,41.22
2019-05-18T07:59:42.044Z,41.60
2019-05-18T08:02:16.900Z,42.47
2019-05-18T08:05:08.231Z,41.90
2019-05-18T08:07:46.541Z,42.16
2019-05-18T08:10:22.530Z,42.26
2019-05-18T08:13:06.578Z,43.26
2019-05-18T08:16:07.884Z,43.89
2019-05-18T08:18:46.599Z,43.74
2019-05-18T08:21:33.092Z,43.60
2019-05-18T08:24:17.367Z,43.75
2019-05-18T08:26:54.761Z,44.16
2019-05-18T08:29:35.335Z,44.50
2019-05-18T08:32:17.129Z,43.91
2019-05-18T08:38:04.885Z,45.18
2019-05-18T08:40:57.066Z,44.87
2019-05-18T08:43:34.640Z,44.76
2019-05-18T08:49:37.840Z,43.93
2019-05-18T08:52:14.124Z,42.66
2019-05-18T08:54:52.905Z,42.80
2019-05-18T08:57:53.126Z,42.16
2019-05-18T09:00:39.813Z,42.20
2019-05-18T09:03:22.762Z,42.80
2019-05-18T09:06:04.625Z,42.14
2019-05-18T09:08:51.044Z,42.89
2019-05-18T09:11:34.908Z,43.61
2019-05-18T09:17:11.968Z,43.92
2019-05-18T09:19:45.863Z,43.36
2019-05-18T09:22:25.136Z,43.22
2019-05-18T09:24:57.990Z,42.31
2019-05-18T09:27:36.733Z,41.95
2019-05-18T09:30:15.349Z,42.13
2019-05-18T09:32:56.419Z,41.75
2019-05-18T09:35:31.549Z,41.70
2019-05-18T09:38:07.739Z,42.41
2019-05-18T09:40:51.848Z,42.75
2019-05-18T09:43:31.008Z,42.89
2019-05-18T09:46:06.019Z,43.11
2019-05-18T09:49:16.152Z,43.27
2019-05-18T09:51:57.052Z,42.83
2019-05-18T09:54:35.680Z,42.71
2019-05-18T09:57:27.683Z,42.18
2019-05-18T10:00:24.793Z,42.34
2019-05-18T10:03:14.321Z,41.79
2019-05-18T10:05:51.262Z,41.49
2019-05-18T10:08:50.940Z,40.85
2019-05-18T10:14:38.038Z,39.54
2019-05-18T10:17:34.752Z,38.26
2019-05-18T10:20:19.850Z,36.90
2019-05-18T10:23:12.476Z,36.02
2019-05-18T10:25:51.818Z,35.91
2019-05-18T10:28:26.837Z,35.25
2019-05-18T10:31:03.566Z,35.34
2019-05-18T10:33:53.767Z,35.30
2019-05-18T10:36:26.103Z,35.14
2019-05-18T10:39:03.930Z,35.19
2019-05-18T10:41:42.707Z,35.22
2019-05-18T10:44:19.337Z,34.73
2019-05-18T10:46:55.487Z,34.61
2019-05-18T10:49:32.588Z,34.71
2019-05-18T10:52:18.297Z,34.58
2019-05-18T10:54:54.544Z,34.02
2019-05-18T10:57:31.613Z,33.67
2019-05-18T11:00:17.886Z,33.71
2019-05-18T11:02:51.463Z,33.96
2019-05-18T11:05:24.855Z,33.43
2019-05-18T11:07:58.376Z,33.50
2019-05-18T11:10:37.655Z,33.67
2019-05-18T11:13:31.520Z,33.90
2019-05-18T11:16:31.848Z,33.75
2019-05-18T11:19:16.410Z,33.92
2019-05-18T11:22:04.806Z,33.70
2019-05-18T11:25:01.797Z,33.69
2019-05-18T15:10:16.185Z,28.86
2019-05-18T15:12:47.808Z,28.79
2019-05-18T15:15:24.201Z,28.80
2019-05-18T15:17:58.383Z,28.67
2019-05-18T15:20:33.758Z,28.63
2019-05-18T15:23:11.307Z,28.55
2019-05-18T15:25:51.198Z,28.53
2019-05-18T15:28:35.203Z,28.58
2019-05-18T15:31:26.188Z,28.54
2019-05-18T15:34:13.917Z,28.54
2019-05-18T15:37:04.911Z,28.46
2019-05-18T15:39:55.300Z,28.28
2019-05-18T15:42:49.188Z,28.20
2019-05-18T15:45:48.143Z,28.13
2019-05-18T15:48:40.630Z,28.00
2019-05-18T15:52:04.929Z,27.84
2019-05-18T15:54:57.922Z,27.77
2019-05-18T15:58:04.626Z,27.78
2019-05-18T16:00:47.994Z,27.48
2019-05-18T16:03:53.532Z,27.57
2019-05-18T16:06:38.330Z,27.44
2019-05-18T16:09:30.886Z,27.34
2019-05-18T16:12:03.083Z,27.34
2019-05-18T16:14:34.916Z,27.32
2019-05-18T16:17:06.580Z,27.26
2019-05-18T16:19:38.229Z,27.21
2019-05-18T16:22:15.626Z,27.11
2019-05-18T16:24:55.893Z,27.00
2019-05-18T16:27:42.946Z,26.97
2019-05-18T16:30:26.913Z,26.88
2019-05-18T16:33:15.235Z,26.79
2019-05-18T16:36:01.575Z,26.78
2019-05-18T16:39:00.936Z,26.72
2019-05-18T16:41:36.169Z,26.63
2019-05-18T16:44:19.105Z,26.58
2019-05-18T16:47:31.887Z,26.47
2019-05-18T16:50:10.767Z,26.43
2019-05-18T16:52:50.189Z,26.37
2019-05-18T16:55:37.881Z,26.23
2019-05-18T16:58:20.930Z,26.12
2019-05-18T17:00:56.258Z,26.12
2019-05-18T17:03:33.099Z,26.03
2019-05-18T17:06:11.815Z,26.03
2019-05-18T17:09:17.754Z,25.96
2019-05-18T17:12:01.893Z,25.82
2019-05-18T17:14:59.115Z,25.76
2019-05-18T17:17:37.414Z,25.64
2019-05-18T17:20:30.438Z,25.55
2019-05-18T17:23:19.044Z,25.48
2019-05-18T17:25:53.319Z,25.50
2019-05-18T17:28:28.879Z,25.41
2019-05-18T17:31:03.945Z,25.41
2019-05-18T17:33:43.717Z,25.30
2019-05-18T17:36:30.749Z,25.38
2019-05-18T17:39:12.784Z,25.26
2019-05-18T17:41:51.434Z,25.17
2019-05-18T17:44:25.743Z,25.14
2019-05-18T17:47:02.336Z,25.15
2019-05-18T17:49:44.467Z,25.06
2019-05-18T17:52:27.937Z,25.02
2019-05-18T17:55:05.163Z,24.94
2019-05-18T17:57:50.045Z,24.79
2019-05-18T18:00:27.418Z,24.69
2019-05-18T18:03:12.542Z,24.60
2019-05-18T18:05:47.671Z,24.51
2019-05-18T18:08:22.304Z,24.40
2019-05-18T18:13:58.870Z,24.28
2019-05-18T18:16:34.577Z,24.21
2019-05-18T18:19:07.208Z,24.18
2019-05-18T18:21:43.490Z,24.14
2019-05-18T18:24:23.884Z,24.06
2019-05-18T18:26:58.991Z,23.94
2019-05-18T18:29:33.038Z,23.90
2019-05-18T18:32:07.714Z,23.87
2019-05-18T18:34:40.332Z,23.80
2019-05-18T18:37:18.234Z,23.80
2019-05-18T18:39:54.521Z,23.73
2019-05-18T18:42:39.412Z,23.70
2019-05-18T18:45:14.416Z,23.65
2019-05-18T18:47:47.398Z,23.60
2019-05-18T18:50:21.280Z,23.56
2019-05-18T18:52:53.671Z,23.52
2019-05-18T18:55:28.577Z,23.49
2019-05-18T18:58:04.443Z,23.48
2019-05-18T19:00:41.419Z,23.45
2019-05-18T19:03:34.845Z,23.36
2019-05-18T19:06:07.357Z,23.26
2019-05-18T19:09:01.727Z,23.22
2019-05-18T19:11:41.755Z,23.12
2019-05-18T19:14:16.327Z,23.05
2019-05-18T19:17:08.231Z,23.07
2019-05-18T19:19:51.426Z,22.96
2019-05-18T19:22:28.867Z,22.91
2019-05-18T19:25:43.021Z,22.84
2019-05-18T19:28:15.319Z,22.77
2019-05-18T19:30:47.730Z,22.74
2019-05-18T19:33:19.369Z,22.70
2019-05-18T19:35:55.124Z,22.72
2019-05-18T19:38:27.779Z,22.70
2019-05-18T19:41:02.526Z,22.59
2019-05-18T19:43:34.411Z,22.62
2019-05-18T19:46:06.361Z,22.58
2019-05-18T19:48:38.127Z,22.50
2019-05-18T19:51:16.396Z,22.57
2019-05-18T19:53:50.848Z,22.50
2019-05-18T19:56:23.221Z,22.46
2019-05-18T19:58:54.785Z,22.42
2019-05-18T20:01:27.459Z,22.35
2019-05-18T20:03:59.734Z,22.35
2019-05-18T20:06:32.914Z,22.34
2019-05-18T20:09:25.250Z,22.28
2019-05-18T20:11:57.309Z,22.12
2019-05-18T20:14:29.118Z,22.06
2019-05-18T20:17:01.789Z,22.06
2019-05-18T20:19:39.064Z,22.10
2019-05-18T20:22:06.818Z,22.14
2019-05-18T20:24:37.937Z,22.03
2019-05-18T20:27:09.827Z,21.92
2019-05-18T20:29:43.144Z,21.91
2019-05-18T20:32:14.846Z,21.81
2019-05-18T20:34:46.401Z,21.71
2019-05-18T20:37:24.115Z,21.73
2019-05-18T20:39:55.452Z,21.71
2019-05-18T20:42:28.271Z,21.63
2019-05-18T20:44:59.888Z,21.53
2019-05-18T20:47:31.966Z,21.56
2019-05-18T20:50:05.543Z,21.52
2019-05-18T20:52:38.738Z,21.42
2019-05-18T20:55:10.202Z,21.35
2019-05-18T20:57:43.995Z,21.28
2019-05-18T21:00:15.854Z,21.22
2019-05-18T21:02:47.712Z,21.34
2019-05-18T21:05:19.470Z,21.28
2019-05-18T21:07:51.442Z,21.24
2019-05-18T21:10:22.884Z,21.16
2019-05-18T21:12:54.947Z,21.09
2019-05-18T21:15:26.819Z,21.06
2019-05-18T21:17:59.183Z,21.10
2019-05-18T21:20:30.645Z,20.97
2019-05-18T21:23:02.192Z,20.99
2019-05-18T21:25:34.146Z,20.94
2019-05-18T21:28:07.545Z,20.90
2019-05-18T21:30:39.206Z,20.83
2019-05-18T21:33:11.061Z,20.80
2019-05-18T21:35:42.713Z,20.83
2019-05-18T21:38:14.677Z,20.73
2019-05-18T21:40:47.667Z,20.66
2019-05-18T21:43:19.527Z,20.66
2019-05-18T21:45:51.195Z,20.65
2019-05-18T21:48:22.827Z,20.65
2019-05-18T21:50:54.480Z,20.55
2019-05-18T21:53:26.955Z,20.46
2019-05-18T21:55:58.822Z,20.39
2019-05-18T21:58:30.475Z,20.40
2019-05-18T22:01:02.137Z,20.36
2019-05-18T22:03:34.115Z,20.34
2019-05-18T22:06:05.957Z,20.23
2019-05-18T22:08:37.810Z,20.24
2019-05-18T22:11:09.570Z,20.29
2019-05-18T22:13:43.479Z,20.19
2019-05-18T22:16:15.236Z,20.18
2019-05-18T22:18:47.608Z,20.14
2019-05-18T22:21:18.849Z,20.17
2019-05-18T22:23:50.615Z,20.14
2019-05-18T22:26:22.477Z,20.07
2019-05-18T22:28:54.442Z,19.97
2019-05-18T22:31:25.990Z,19.87
2019-05-18T22:33:57.959Z,19.81
2019-05-18T22:36:29.600Z,19.76
2019-05-18T22:39:07.195Z,19.75
2019-05-18T22:41:38.748Z,19.70
2019-05-18T22:44:10.604Z,19.60
2019-05-18T22:46:42.061Z,19.59
2019-05-18T22:49:14.021Z,19.54
2019-05-18T22:51:45.891Z,19.56
2019-05-18T22:54:17.741Z,19.56
2019-05-18T22:56:49.317Z,19.53
2019-05-18T22:59:20.961Z,19.52
2019-05-18T23:01:52.311Z,19.47
2019-05-18T23:04:23.860Z,19.42
2019-05-18T23:06:55.607Z,19.36
2019-05-18T23:09:27.069Z,19.34
2019-05-18T23:11:58.726Z,19.33
2019-05-18T23:14:30.383Z,19.26
2019-05-18T23:17:01.830Z,19.17
2019-05-18T23:19:33.996Z,19.21
2019-05-18T23:22:05.548Z,19.17
2019-05-18T23:24:37.095Z,19.17
2019-05-18T23:27:12.484Z,19.20
2019-05-18T23:29:44.092Z,19.20
2019-05-18T23:32:16.152Z,19.04
2019-05-18T23:34:48.116Z,18.98
2019-05-18T23:37:19.782Z,18.92
2019-05-18T23:39:53.685Z,18.86
2019-05-18T23:42:25.955Z,18.84
2019-05-18T23:44:58.738Z,18.92
2019-05-18T23:47:30.902Z,18.88
2019-05-18T23:50:02.866Z,18.82
2019-05-18T23:52:34.316Z,18.82
2019-05-18T23:55:06.897Z,18.75
2019-05-18T23:57:38.449Z,18.65
